PEE weather

Bolshoye Savino Airport
Perm, Perm Krai, Russia

Public forecast

Using degrees Celsius for public forecast. Weather courtesy of forecast.io.

METAR (pilot weather report)

Retrieved 2019/09/23 08:30 UTC (6 minutes ago):

USPP 230830Z 04006MPS 9999 FEW040 07/M00 Q0992 R03/090060 NOSIG RMK QFE734

TAF (pilot weather forecast)

Retrieved 2019/09/23 09:21 UTC (0 seconds ago):

TAF USPP 230800Z 2309/2409 02004G09MPS 9999 BKN016 TEMPO 2309/2312 35004G13MPS 3100 -SHRAGS BKN011CB BECMG 2312/2313 34003G10MPS BECMG 2315/2317 30003G09MPS BECMG 2400/2402 26003G08MPS BKN011